Marius Cicaldau

Recruteur - Dinamo Bucharest
25 Déc 2027
Samedi
Processus

Personnalité

Adaptabilité (13) Ambition (16) Controverse (2) Loyauté (7) Pression (8) Professionnalisme (1) Sportivité (16) Tempérament (15)

Profil

Style d'entraînement Démocratique
Diplôme Continental C
Détermination 5
Gestion des joueurs 10
Motivation 4
Discipline 8
Satisfaction professionnelle
100%
Fatigue
0%
Rôle Recruteur
Salaire 57.8K p/s
Contrat 14.03.2028

Performance

Comportement Bon
Efficacité de l'entraînement
35%
Développement des joueurs
50%
Prévention des blessures
50%
Mise en place tactique
25%

Événements récents

Négociation de contrat entamée maintenant
A participé à une réunion de recrutement maintenant
A participé à une réunion de recrutement maintenant
Négociation de contrat entamée maintenant
Négociation de contrat entamée maintenant
Négociation de contrat entamée 7j
Négociation de contrat entamée 7j
Négociation de contrat entamée 7j

Suivi en cours

77
Joueur Club Statut Capacité Confiance Observé Dernière observation Dernier vote
Adams Friday Botosani Perdu 116 / 121 62% 1 19.07.2027 -
Ştefan Baiaram Universitatea Craiova Perdu 134 / 128 62% 1 05.07.2027 -
Aldair Ferreira Astra Perdu 106 / 118 62% 1 28.06.2027 -
Oscar Schwartau Norwich City Actif 118 / 131 40% 2 29.05.2027 -
Tiago Freitas Benfica Actif 116 / 116 40% 1 24.05.2027 -
Daniel Awuni Aduana Stars Actif 99 / 91 40% 1 22.05.2027 -
Nikolaus Wurmbrand Heidenheim Actif 124 / 137 40% 1 22.05.2027 -
Monty Batlhabane Polokwane City Actif 103 / 97 40% 2 17.05.2027 -
Oumar Camara Vitoria Guimaraes Actif 124 / 140 40% 1 17.05.2027 -
Araphat Mohammed Medeama Actif 100 / 115 40% 2 16.05.2027 -
Abraham Paintsil Hasaacas Actif 83 / 89 40% 1 16.05.2027 -
Daniel Watts Salyut Actif 75 / 75 40% 1 14.05.2027 -
Lander Astiazarán Real Sociedad Actif 115 / 107 40% 2 13.05.2027 -
Christos Mouzakitis Hull City Actif 125 / 140 40% 1 12.05.2027 -
Luther Lorch Free State Stars Actif 89 / 90 40% 1 12.05.2027 -
Yaw Adjei Hasaacas Actif 72 / 86 40% 2 11.05.2027 -
Gorka Gorosabel Real Sociedad Actif 93 / 109 40% 1 11.05.2027 -
Ichem Ferrah Pisa Actif 95 / 113 40% 1 09.05.2027 -
Shea Lacey Millwall Actif 112 / 124 40% 1 09.05.2027 -
Leonardo Mendicino Bari Actif 109 / 111 40% 1 08.05.2027 -
Alex Amorim Genoa Actif 116 / 126 40% 1 07.05.2027 -
Amine Moussaoui Angers SCO Actif 114 / 117 40% 1 04.05.2027 -
Nestory Irankunda Watford Actif 119 / 121 40% 1 04.05.2027 -
Kamarni Ryan Salford City Actif 102 / 111 40% 1 27.04.2027 -
Othmane Maamma Watford Actif 131 / 138 40% 3 24.04.2027 -
João Abreu Porto Actif 102 / 95 40% 1 24.04.2027 -
Ronwen Khune Black Aces Actif 110 / 102 40% 2 22.04.2027 -
André Miranda Porto Actif 98 / 95 40% 1 22.04.2027 -
Sam Curtis Swindon Town Actif 103 / 110 40% 1 18.04.2027 -
Cyriaque Irié Borussia Mönchengladbach Actif 114 / 132 40% 1 18.04.2027 -
Gladson Sulemana Liberty Professionals Actif 85 / 106 40% 1 12.04.2027 -
Alfie Doughty Millwall Actif 117 / 123 40% 1 27.01.2027 -
Luke McNally Bristol City Actif 122 / 129 40% 1 01.01.2027 -
Joe Rankin-Costello Charlton Athletic Actif 129 / 122 40% 1 01.01.2027 -
Adrian Dragusin CFR Cluj Actif 151 / 135 40% 2 31.12.2026 -
Mitchel Bakker Rostov Actif 137 / 126 40% 2 31.12.2026 -
Pelle Mattsson Norwich City Actif 140 / 130 40% 1 30.12.2026 Plus d'infos
Emin Hasić NK Osijek Actif 113 / 119 40% 2 29.12.2026 -
Pastor CSKA Sofia Actif 126 / 123 40% 1 29.12.2026 Plus d'infos
Diego Costa Krasnodar Actif 132 / 132 40% 1 27.12.2026 -
Serge-Philippe Raux-Yao Rapid Wien Actif 122 / 127 40% 1 26.12.2026 -
Nikita Krivtsov Krasnodar Actif 122 / 120 40% 1 25.12.2026 -
Thabang Matuludi Polokwane City Actif 117 / 109 40% 1 15.12.2026 -
Andrey Langovich Rostov Actif 110 / 126 40% 1 14.12.2026 -
Thulani Phiri Platinum Stars Actif 97 / 120 40% 1 14.12.2026 -
James Eto'o CSKA Sofia Actif 113 / 116 40% 1 10.12.2026 -
Oleksandr Romanchuk Universitatea Craiova Actif 113 / 125 40% 1 10.12.2026 -
Christos Zafeiris FC Copenhagen Actif 130 / 133 40% 1 06.12.2026 -
Vasco Sousa Porto Actif 128 / 117 40% 1 06.12.2026 -
Guillem Molina Huesca Actif 119 / 95 40% 1 05.12.2026 -
Maicon Levski Actif 130 / 120 40% 1 05.12.2026 -
Dominik Oroz Krylya Sovetov Actif 114 / 119 40% 2 04.12.2026 -
Luan Patrick Estrela da Amadora Actif 129 / 121 40% 1 04.12.2026 -
Kristiyan Stoyanov Slavia Sofia Actif 105 / 122 40% 1 28.11.2026 -
Christian Krasnodar Actif 139 / 141 40% 1 21.11.2026 Plus d'infos
Matthias Seidl Rapid Wien Actif 134 / 118 40% 1 05.10.2026 -
Damián Puebla Orenburg Actif 124 / 118 40% 1 05.10.2026 -
Mateo Aguiar Defensa y Justicia Actif 113 / 110 40% 1 30.09.2026 -
Casian Soare NK Zavrc Actif 81 / 79 40% 3 29.09.2026 -
Gideon Manaseh Ikorodu City Actif 87 / 90 40% 1 29.09.2026 -
Andrei Gabriele Florea MSK Zilina Actif 97 / 99 40% 1 27.09.2026 -
Ştefan Bană ND Gorica Actif 100 / 97 40% 1 26.09.2026 -
Chinedu Nwosu Bendel Insurance Actif 91 / 84 40% 1 21.09.2026 -
Narcis Ilaş Petrolul Actif 103 / 123 40% 1 20.09.2026 -
Gady Beyuku Blackburn Rovers Actif 119 / 112 40% 1 17.09.2026 -
Luca Regiardo Newell's Old Boys Actif 110 / 115 40% 1 16.09.2026 -
Juan Velázquez Atlético Madrid Actif 114 / 125 40% 1 16.09.2026 -
Sanel Šaljić Austria Wien Actif 112 / 124 40% 1 14.09.2026 -
Roger Hinojo Espanyol Actif 122 / 105 40% 1 14.09.2026 -
Dani Díaz Real Sociedad Actif 111 / 115 40% 1 09.09.2026 -
Jonathan De Irastorza Levante Actif 100 / 110 40% 1 09.09.2026 -
Hakim Sulemana SJK Actif 83 / 93 40% 1 08.09.2026 -
Isaí Valladares Zamora Actif 80 / 116 40% 1 08.09.2026 -
Santiago Segovia Rosario Central Actif 92 / 127 40% 1 07.09.2026 -
Giannis Anestis Botosani Actif 113 / 106 58% 1 24.08.2026 -
Diego Rossi Monterrey Actif 124 / 147 40% 1 02.08.2026 -
Dwight McNeil Crystal Palace Actif 124 / 138 40% 1 02.08.2026 -